Time;durP1;ratioP1;P1;durP2;ratioP2;P2;SDS_P1;SDS_P2;PMS_P1;PMS_P2;Temp;Humidity;BMP_temperature;BMP_pressure;BME280_temperature;BME280_humidity;BME280_pressure;Samples;Min_cycle;Max_cycle;Signal;HPM_P1;HPM_P2
2022/01/30 00:00:10;;;;;;;22.08;4.57;;;6.40;93.40;;;;;;5157446;27;37386;-60
2022/01/30 00:02:37;;;;;;;31.42;6.35;;;6.40;93.50;;;;;;5157302;27;36641;-60
2022/01/30 00:05:06;;;;;;;36.80;5.32;;;6.50;93.40;;;;;;5157556;27;37508;-61
2022/01/30 00:07:34;;;;;;;25.02;4.40;;;6.50;93.40;;;;;;5157016;27;38535;-60
2022/01/30 00:10:01;;;;;;;31.75;5.30;;;6.50;93.40;;;;;;5155455;27;38499;-60
2022/01/30 00:12:31;;;;;;;25.13;4.30;;;6.60;93.40;;;;;;5155224;27;37962;-62
2022/01/30 00:14:59;;;;;;;32.10;5.72;;;6.60;93.40;;;;;;5156979;27;37578;-61
2022/01/30 00:17:35;;;;;;;24.35;4.57;;;6.70;93.30;;;;;;5155481;27;37632;-60
2022/01/30 00:20:05;;;;;;;25.63;4.65;;;6.80;93.10;;;;;;5156183;27;37330;-61
2022/01/30 00:22:46;;;;;;;22.50;4.40;;;6.70;93.00;;;;;;5156095;27;36974;-61
2022/01/30 00:25:17;;;;;;;23.35;5.07;;;6.90;93.10;;;;;;5156695;27;38725;-61
2022/01/30 00:27:49;;;;;;;29.00;4.63;;;6.90;93.20;;;;;;5156912;27;38313;-61
2022/01/30 00:30:17;;;;;;;28.45;4.32;;;6.90;93.30;;;;;;5156246;27;37604;-61
2022/01/30 00:32:46;;;;;;;32.28;5.88;;;6.90;93.50;;;;;;5159022;27;36989;-61
2022/01/30 00:35:14;;;;;;;16.80;2.90;;;6.90;93.80;;;;;;5160067;27;38417;-62
2022/01/30 00:37:43;;;;;;;11.25;2.58;;;6.80;93.70;;;;;;5159688;27;37846;-61
2022/01/30 00:40:11;;;;;;;20.45;3.65;;;6.60;93.60;;;;;;5158845;27;37199;-61
2022/01/30 00:42:38;;;;;;;20.95;3.53;;;6.50;93.70;;;;;;5159686;27;36591;-61
2022/01/30 00:45:07;;;;;;;27.38;6.03;;;6.40;94.00;;;;;;5159430;27;37620;-60
2022/01/30 00:47:34;;;;;;;23.60;4.68;;;6.20;94.10;;;;;;5158437;27;39157;-61
2022/01/30 00:50:04;;;;;;;30.02;6.20;;;6.20;94.30;;;;;;5157713;27;38828;-61
2022/01/30 00:52:31;;;;;;;28.10;5.95;;;6.20;94.40;;;;;;5158984;27;39699;-61
2022/01/30 00:54:58;;;;;;;26.15;5.32;;;6.10;94.30;;;;;;5158579;27;37552;-61
2022/01/30 00:57:26;;;;;;;34.55;5.82;;;6.10;94.30;;;;;;5158286;27;36615;-61
2022/01/30 00:59:54;;;;;;;22.45;4.55;;;6.10;94.20;;;;;;5159493;27;37973;-61
2022/01/30 01:02:22;;;;;;;23.92;4.68;;;6.10;94.00;;;;;;5160657;27;38308;-60
2022/01/30 01:04:49;;;;;;;26.92;4.47;;;6.10;93.90;;;;;;5159436;27;38619;-60
2022/01/30 01:07:21;;;;;;;33.22;6.18;;;6.10;93.90;;;;;;5158672;27;36540;-61
2022/01/30 01:09:56;;;;;;;25.67;4.57;;;6.10;93.90;;;;;;5160197;27;38318;-61
2022/01/30 01:23:39;;;;;;;27.70;5.57;;;6.10;93.70;;;;;;5059583;28;37302;-61
2022/01/30 01:26:07;;;;;;;36.20;5.90;;;6.10;93.60;;;;;;5138425;27;36486;-61
2022/01/30 01:28:35;;;;;;;30.70;6.00;;;6.20;93.70;;;;;;5159436;27;37837;-61
2022/01/30 01:31:02;;;;;;;22.63;4.80;;;6.20;93.70;;;;;;5159471;27;37915;-61
2022/01/30 01:33:38;;;;;;;31.52;5.63;;;6.30;93.80;;;;;;5158678;27;38201;-61
2022/01/30 01:36:06;;;;;;;40.10;8.27;;;6.30;93.80;;;;;;5159257;27;37922;-61
2022/01/30 01:38:35;;;;;;;31.50;5.38;;;6.30;93.90;;;;;;5158978;27;38333;-62
2022/01/30 01:41:03;;;;;;;27.08;5.28;;;6.30;93.80;;;;;;5159051;27;38411;-61
2022/01/30 01:43:30;;;;;;;24.38;4.22;;;6.30;93.90;;;;;;5158661;27;36674;-60
2022/01/30 01:46:00;;;;;;;22.95;3.33;;;6.30;93.80;;;;;;5158927;27;40094;-60
2022/01/30 01:48:32;;;;;;;19.30;4.55;;;6.20;93.40;;;;;;5159681;27;37727;-61
2022/01/30 01:51:06;;;;;;;36.73;6.97;;;6.20;93.30;;;;;;5158768;27;38159;-61
2022/01/30 01:53:35;;;;;;;23.98;4.78;;;6.10;93.30;;;;;;5159138;27;37006;-60
2022/01/30 01:56:03;;;;;;;27.02;4.97;;;6.10;93.40;;;;;;5159565;27;37676;-61
2022/01/30 01:58:30;;;;;;;27.42;5.07;;;6.10;93.40;;;;;;5159400;27;37738;-60
2022/01/30 02:00:59;;;;;;;30.48;6.25;;;6.10;93.40;;;;;;5156819;27;36783;-61
2022/01/30 02:03:27;;;;;;;31.65;6.30;;;6.20;93.60;;;;;;5158269;27;35439;-61
2022/01/30 02:05:58;;;;;;;36.97;5.97;;;6.20;93.80;;;;;;5158225;27;36245;-61
2022/01/30 02:08:34;;;;;;;33.63;6.72;;;6.30;93.70;;;;;;5158602;27;37315;-60
2022/01/30 02:11:07;;;;;;;33.97;6.18;;;6.40;93.70;;;;;;5157739;27;37287;-60
2022/01/30 02:13:49;;;;;;;36.05;6.47;;;6.50;93.80;;;;;;5157414;27;36574;-61
2022/01/30 02:24:52;;;;;;;26.30;5.78;;;6.50;94.20;;;;;;5159861;27;37379;-60
2022/01/30 02:27:23;;;;;;;25.52;5.18;;;6.40;94.20;;;;;;5158513;27;39830;-60
2022/01/30 02:29:50;;;;;;;28.25;5.07;;;6.50;94.10;;;;;;5156632;27;38383;-60
2022/01/30 02:32:18;;;;;;;31.83;6.00;;;6.40;94.20;;;;;;5157882;27;37456;-61
2022/01/30 02:34:45;;;;;;;29.75;5.13;;;6.40;94.20;;;;;;5158533;27;36318;-61
2022/01/30 02:37:14;;;;;;;26.70;6.47;;;6.30;94.10;;;;;;5157762;27;39590;-60
2022/01/30 02:39:43;;;;;;;41.47;6.95;;;6.30;94.10;;;;;;5157938;27;38570;-60
2022/01/30 02:42:14;;;;;;;32.92;6.50;;;6.30;94.00;;;;;;5159149;27;40387;-60
2022/01/30 02:44:47;;;;;;;38.08;6.85;;;6.30;93.90;;;;;;5157109;27;38801;-61
2022/01/30 02:47:24;;;;;;;31.15;7.22;;;6.20;93.80;;;;;;5157831;27;37578;-61
2022/01/30 02:50:11;;;;;;;31.10;5.97;;;6.30;93.80;;;;;;5157275;27;36549;-60
2022/01/30 02:52:41;;;;;;;38.17;6.78;;;6.20;93.60;;;;;;5158316;27;38787;-61
2022/01/30 02:55:13;;;;;;;38.28;7.07;;;6.20;93.60;;;;;;5158991;27;36498;-61
2022/01/30 02:57:40;;;;;;;33.47;6.75;;;6.20;93.50;;;;;;5156826;27;37038;-61
2022/01/30 03:00:09;;;;;;;34.53;6.22;;;6.20;93.50;;;;;;5156960;27;37733;-61
2022/01/30 03:02:36;;;;;;;41.58;7.72;;;6.20;93.40;;;;;;5157732;27;38750;-60
2022/01/30 03:05:04;;;;;;;37.13;6.90;;;6.20;93.40;;;;;;5157722;27;36381;-60
2022/01/30 03:07:32;;;;;;;43.13;7.05;;;6.20;93.40;;;;;;5156187;27;37431;-60
2022/01/30 03:09:59;;;;;;;38.05;7.00;;;6.20;93.50;;;;;;5155030;27;37826;-60
2022/01/30 03:12:28;;;;;;;34.60;7.53;;;6.20;93.50;;;;;;5157707;27;38065;-60
2022/01/30 03:14:55;;;;;;;39.88;7.00;;;6.20;93.60;;;;;;5156354;27;36568;-61
2022/01/30 03:17:23;;;;;;;37.17;6.50;;;6.30;93.70;;;;;;5157774;27;36361;-60
2022/01/30 03:19:50;;;;;;;40.78;6.65;;;6.30;93.80;;;;;;5157662;27;37692;-60
2022/01/30 03:22:17;;;;;;;37.17;7.43;;;6.40;93.90;;;;;;5156404;27;38239;-60
2022/01/30 03:24:45;;;;;;;29.10;5.35;;;6.40;94.00;;;;;;5156582;27;35456;-61
2022/01/30 03:27:14;;;;;;;32.25;5.78;;;6.40;94.00;;;;;;5157686;27;37520;-60
2022/01/30 03:29:49;;;;;;;33.47;5.78;;;6.40;94.00;;;;;;5155878;27;39253;-60
2022/01/30 03:32:17;;;;;;;31.85;5.63;;;6.40;94.00;;;;;;5156677;27;37448;-61
2022/01/30 03:34:45;;;;;;;30.85;6.78;;;6.50;93.80;;;;;;5158273;27;37122;-61
2022/01/30 03:37:12;;;;;;;33.58;7.40;;;6.50;93.60;;;;;;5158137;27;38967;-61
2022/01/30 03:39:39;;;;;;;38.50;6.78;;;6.50;93.30;;;;;;5156779;27;36516;-61
2022/01/30 03:42:08;;;;;;;37.72;7.95;;;6.60;93.00;;;;;;5157980;27;37522;-61
2022/01/30 03:44:35;;;;;;;30.50;7.15;;;6.60;92.90;;;;;;5156781;27;35997;-61
2022/01/30 03:47:05;;;;;;;33.78;7.60;;;6.60;92.60;;;;;;5156521;27;38504;-60
2022/01/30 03:49:34;;;;;;;38.38;7.60;;;6.60;92.20;;;;;;5155657;27;38691;-61
2022/01/30 03:52:01;;;;;;;36.38;6.97;;;6.70;92.20;;;;;;5156608;27;40586;-61
2022/01/30 03:54:30;;;;;;;42.00;7.93;;;6.70;92.10;;;;;;5156114;27;36407;-61
2022/01/30 03:56:57;;;;;;;44.13;9.70;;;6.70;92.00;;;;;;5156531;27;37551;-61
2022/01/30 03:59:24;;;;;;;42.38;6.82;;;6.80;92.00;;;;;;5157461;27;36566;-60
2022/01/30 04:01:52;;;;;;;32.25;6.35;;;6.70;91.90;;;;;;5158001;27;36708;-61
2022/01/30 04:04:20;;;;;;;45.45;8.25;;;6.80;92.00;;;;;;5155760;27;37779;-61
2022/01/30 04:06:48;;;;;;;40.60;7.32;;;6.70;92.20;;;;;;5158351;27;38485;-61
2022/01/30 04:09:16;;;;;;;37.92;7.93;;;6.70;92.40;;;;;;5160440;27;37690;-61
2022/01/30 04:11:43;;;;;;;36.22;7.75;;;6.70;92.40;;;;;;5160962;27;37088;-61
2022/01/30 04:14:11;;;;;;;48.72;8.10;;;6.60;92.50;;;;;;5160246;27;39454;-61
2022/01/30 04:16:39;;;;;;;49.10;8.70;;;6.60;92.40;;;;;;5160161;27;37416;-61
2022/01/30 04:19:07;;;;;;;43.65;7.57;;;6.60;92.50;;;;;;5160232;27;37821;-61
2022/01/30 04:21:36;;;;;;;36.17;7.65;;;6.60;92.10;;;;;;5160148;27;36427;-61
2022/01/30 04:24:03;;;;;;;49.83;8.93;;;6.50;92.00;;;;;;5161062;27;35579;-61
2022/01/30 04:26:31;;;;;;;39.88;7.95;;;6.50;92.00;;;;;;5161491;27;37039;-61
2022/01/30 04:28:59;;;;;;;47.10;8.68;;;6.50;91.90;;;;;;5159633;27;38334;-61
2022/01/30 04:31:27;;;;;;;41.53;6.78;;;6.50;91.80;;;;;;5159682;27;37357;-61
2022/01/30 04:33:55;;;;;;;33.35;7.22;;;6.50;91.90;;;;;;5161007;27;37828;-61
2022/01/30 04:36:28;;;;;;;38.65;8.07;;;6.50;91.60;;;;;;5161047;27;36359;-61
2022/01/30 04:39:04;;;;;;;37.60;8.38;;;6.50;91.60;;;;;;5159582;27;40116;-61
2022/01/30 04:41:54;;;;;;;45.97;7.68;;;6.50;91.60;;;;;;5159284;27;36250;-61
2022/01/30 04:56:01;;;;;;;46.75;9.18;;;6.50;91.70;;;;;;5141983;27;37088;-61
2022/01/30 04:58:22;;;;;;;43.42;6.95;;;6.50;91.70;;;;;;5158858;27;37202;-61
2022/01/30 05:00:58;;;;;;;49.63;8.43;;;6.50;91.70;;;;;;5159138;27;37786;-61
2022/01/30 05:03:39;;;;;;;45.85;7.40;;;6.50;91.60;;;;;;5158948;27;36104;-61
2022/01/30 05:06:10;;;;;;;39.05;8.65;;;6.60;91.50;;;;;;5159735;27;37598;-61
2022/01/30 05:08:37;;;;;;;48.35;8.73;;;6.50;91.40;;;;;;5160298;27;37472;-61
2022/01/30 05:11:07;;;;;;;37.90;7.70;;;6.50;91.40;;;;;;5159067;27;39213;-61
2022/01/30 05:13:37;;;;;;;41.80;8.02;;;6.50;91.50;;;;;;5159239;27;39727;-61
2022/01/30 05:16:06;;;;;;;42.67;8.75;;;6.50;91.60;;;;;;5158899;27;37938;-61
2022/01/30 05:18:34;;;;;;;47.03;8.02;;;6.50;91.70;;;;;;5158942;27;37721;-61
2022/01/30 05:21:01;;;;;;;32.20;7.00;;;6.50;91.60;;;;;;5158784;27;36549;-61
2022/01/30 05:23:29;;;;;;;33.90;7.13;;;6.40;91.50;;;;;;5160153;27;38504;-61
2022/01/30 05:25:57;;;;;;;42.22;9.18;;;6.40;91.50;;;;;;5158118;27;36491;-61
2022/01/30 05:28:26;;;;;;;47.05;7.47;;;6.40;91.60;;;;;;5159644;27;37636;-61
2022/01/30 05:30:54;;;;;;;45.45;8.20;;;6.40;91.90;;;;;;5158538;27;39775;-61
2022/01/30 05:33:22;;;;;;;40.08;8.50;;;6.30;91.80;;;;;;5159135;27;39803;-61
2022/01/30 05:35:50;;;;;;;46.03;8.90;;;6.30;91.80;;;;;;5158206;27;36532;-61
2022/01/30 05:38:17;;;;;;;46.38;8.75;;;6.30;91.90;;;;;;5158600;27;36301;-61
2022/01/30 05:40:45;;;;;;;38.92;7.93;;;6.30;92.00;;;;;;5158093;27;40183;-61
2022/01/30 05:43:13;;;;;;;46.75;8.40;;;6.40;92.00;;;;;;5159632;27;37548;-61
2022/01/30 05:45:45;;;;;;;43.70;8.57;;;6.40;91.90;;;;;;5157791;27;37637;-61
2022/01/30 05:48:16;;;;;;;46.20;9.85;;;6.40;91.60;;;;;;5158340;27;38939;-61
2022/01/30 05:50:43;;;;;;;47.83;8.65;;;6.50;91.30;;;;;;5158669;27;37945;-61
2022/01/30 05:53:11;;;;;;;47.47;8.23;;;6.50;91.30;;;;;;5157392;27;37276;-61
2022/01/30 05:55:38;;;;;;;46.30;8.07;;;6.60;91.20;;;;;;5158699;27;37787;-61
2022/01/30 05:58:06;;;;;;;50.03;7.80;;;6.60;91.00;;;;;;5159146;27;38293;-61
2022/01/30 06:00:33;;;;;;;36.00;7.32;;;6.60;90.90;;;;;;5156885;27;38545;-61
2022/01/30 06:03:02;;;;;;;40.70;6.90;;;6.60;90.80;;;;;;5158011;27;38418;-61
2022/01/30 06:05:29;;;;;;;37.22;8.45;;;6.70;90.50;;;;;;5158859;27;36666;-61
2022/01/30 06:07:57;;;;;;;35.10;7.10;;;6.70;90.20;;;;;;5157217;27;37866;-61
2022/01/30 06:10:27;;;;;;;40.75;7.53;;;6.70;90.20;;;;;;5158426;27;36469;-61
2022/01/30 06:12:54;;;;;;;45.20;8.00;;;6.70;90.00;;;;;;5157112;27;37313;-61
2022/01/30 06:15:22;;;;;;;50.20;8.38;;;6.70;90.00;;;;;;5158133;27;37103;-61
2022/01/30 06:17:49;;;;;;;39.30;8.57;;;6.70;90.00;;;;;;5159162;27;39420;-61
2022/01/30 06:20:18;;;;;;;46.97;9.35;;;6.70;90.00;;;;;;5157855;27;38305;-61
2022/01/30 06:22:45;;;;;;;33.28;7.28;;;6.70;90.00;;;;;;5156484;27;37147;-61
2022/01/30 06:25:14;;;;;;;47.70;8.35;;;6.70;89.90;;;;;;5158359;27;35592;-61
2022/01/30 06:27:42;;;;;;;37.85;8.02;;;6.70;89.40;;;;;;5157475;27;37465;-61
2022/01/30 06:30:11;;;;;;;30.15;7.65;;;6.60;89.40;;;;;;5156207;27;36569;-62
2022/01/30 06:32:39;;;;;;;46.75;9.27;;;6.60;89.10;;;;;;5155968;27;37453;-61
2022/01/30 06:35:07;;;;;;;37.55;7.55;;;6.60;88.40;;;;;;5157939;27;35440;-61
2022/01/30 06:37:36;;;;;;;35.58;6.15;;;6.60;87.90;;;;;;5157130;27;37518;-61
2022/01/30 06:40:04;;;;;;;49.97;7.32;;;6.60;87.30;;;;;;5157319;27;37603;-61
2022/01/30 06:42:32;;;;;;;49.70;7.22;;;6.60;87.30;;;;;;5158419;27;38284;-61
2022/01/30 06:45:00;;;;;;;39.35;7.03;;;6.60;87.10;;;;;;5158853;27;36310;-61
2022/01/30 06:47:27;;;;;;;43.83;7.68;;;6.70;87.30;;;;;;5158639;27;38683;-61
2022/01/30 06:49:54;;;;;;;47.53;8.15;;;6.60;87.10;;;;;;5158011;27;37986;-61
2022/01/30 06:52:22;;;;;;;48.45;7.95;;;6.70;87.00;;;;;;5157133;27;38251;-61
2022/01/30 06:54:50;;;;;;;46.90;8.27;;;6.70;86.80;;;;;;5157439;27;37540;-61
2022/01/30 06:57:18;;;;;;;45.40;9.57;;;6.70;86.70;;;;;;5157259;27;37791;-61
2022/01/30 06:59:45;;;;;;;38.60;8.00;;;6.80;86.80;;;;;;5157167;27;38384;-61
2022/01/30 07:02:12;;;;;;;49.80;7.85;;;6.70;87.70;;;;;;5157532;27;37371;-62
2022/01/30 07:04:39;;;;;;;49.38;9.48;;;6.70;87.30;;;;;;5157373;27;36324;-61
2022/01/30 07:07:07;;;;;;;43.85;9.07;;;6.70;87.30;;;;;;5157932;27;38306;-61
2022/01/30 07:09:34;;;;;;;61.97;10.45;;;6.70;87.70;;;;;;5157974;27;37736;-61
2022/01/30 07:12:04;;;;;;;43.38;9.20;;;6.70;88.30;;;;;;5157430;27;37331;-61
2022/01/30 07:14:31;;;;;;;47.85;8.73;;;6.70;88.40;;;;;;5156616;27;37363;-61
2022/01/30 07:16:58;;;;;;;52.63;9.63;;;6.70;88.70;;;;;;5157595;27;38010;-61
2022/01/30 07:19:26;;;;;;;43.53;8.00;;;6.60;88.60;;;;;;5158582;27;38147;-61
2022/01/30 07:21:54;;;;;;;46.80;9.10;;;6.70;88.70;;;;;;5158599;27;37406;-61
2022/01/30 07:24:21;;;;;;;48.90;9.40;;;6.60;88.50;;;;;;5157993;27;37318;-61
2022/01/30 07:26:49;;;;;;;38.88;7.47;;;6.70;88.20;;;;;;5157946;27;36080;-60
2022/01/30 07:29:17;;;;;;;40.30;8.68;;;6.70;87.80;;;;;;5157644;27;38190;-61
2022/01/30 07:31:45;;;;;;;40.22;6.97;;;6.70;86.50;;;;;;5155389;27;37171;-61
2022/01/30 07:34:12;;;;;;;36.28;6.60;;;6.60;85.00;;;;;;5157370;27;37779;-61
2022/01/30 07:36:41;;;;;;;29.05;6.45;;;6.60;82.70;;;;;;5154720;27;36439;-61
2022/01/30 07:39:11;;;;;;;38.55;7.88;;;6.50;82.10;;;;;;5157460;27;36588;-61
2022/01/30 07:41:39;;;;;;;34.00;6.47;;;6.50;81.20;;;;;;5155405;27;37646;-61
2022/01/30 07:44:07;;;;;;;47.35;6.70;;;6.50;80.20;;;;;;5158287;27;37076;-61
2022/01/30 07:46:36;;;;;;;33.80;6.45;;;6.50;80.10;;;;;;5157438;27;38187;-61
2022/01/30 07:49:04;;;;;;;36.17;6.47;;;6.50;80.00;;;;;;5157687;27;38030;-61
2022/01/30 07:51:31;;;;;;;29.73;5.72;;;6.50;79.10;;;;;;5159227;27;37349;-61
2022/01/30 07:53:59;;;;;;;38.33;5.68;;;6.50;78.70;;;;;;5158488;27;36386;-61
2022/01/30 07:56:26;;;;;;;33.83;6.47;;;6.50;78.50;;;;;;5157173;27;37138;-61
2022/01/30 07:58:53;;;;;;;40.53;7.47;;;6.60;78.50;;;;;;5158236;27;38230;-61
2022/01/30 08:01:21;;;;;;;26.30;5.30;;;6.60;78.80;;;;;;5156626;27;39267;-61
2022/01/30 08:03:49;;;;;;;35.92;7.10;;;6.60;78.30;;;;;;5156937;27;36737;-61
2022/01/30 08:06:17;;;;;;;31.42;6.00;;;6.60;78.00;;;;;;5157426;27;39944;-61
2022/01/30 08:08:44;;;;;;;30.40;6.97;;;6.60;78.00;;;;;;5157765;27;36468;-61
2022/01/30 08:11:12;;;;;;;29.55;6.03;;;6.60;78.00;;;;;;5157710;27;38009;-61
2022/01/30 08:13:39;;;;;;;31.63;6.60;;;6.70;78.40;;;;;;5158069;27;36694;-61
2022/01/30 08:16:06;;;;;;;36.55;7.20;;;6.70;78.50;;;;;;5158334;27;37357;-61
2022/01/30 08:18:37;;;;;;;38.50;6.75;;;6.70;78.40;;;;;;5156749;27;37604;-61
2022/01/30 08:21:06;;;;;;;40.30;7.75;;;6.70;79.10;;;;;;5158801;27;37308;-60
2022/01/30 08:23:34;;;;;;;40.38;6.88;;;6.70;79.30;;;;;;5157141;27;36968;-61
2022/01/30 08:26:01;;;;;;;36.47;7.32;;;6.80;79.40;;;;;;5156631;27;38232;-61
2022/01/30 08:28:28;;;;;;;33.63;6.97;;;6.80;79.60;;;;;;5155795;27;37379;-61
2022/01/30 08:30:56;;;;;;;43.60;8.30;;;6.70;79.10;;;;;;5156091;27;37998;-61
2022/01/30 08:33:24;;;;;;;45.45;7.40;;;6.70;79.10;;;;;;5156411;27;36183;-61
2022/01/30 08:35:51;;;;;;;44.13;8.10;;;6.70;78.90;;;;;;5156685;27;37415;-61
2022/01/30 08:38:20;;;;;;;35.28;7.97;;;6.70;79.10;;;;;;5157901;27;37653;-61
2022/01/30 08:40:47;;;;;;;42.17;8.20;;;6.80;79.00;;;;;;5156679;27;39007;-61
2022/01/30 08:43:17;;;;;;;38.70;7.75;;;7.00;78.70;;;;;;5156278;27;36704;-61
2022/01/30 08:45:44;;;;;;;42.45;8.40;;;7.10;78.80;;;;;;5155948;27;37540;-61
2022/01/30 08:48:11;;;;;;;44.92;8.52;;;7.10;78.60;;;;;;5156635;27;39038;-60
2022/01/30 08:50:39;;;;;;;46.80;8.25;;;7.20;78.80;;;;;;5155847;27;37488;-61
2022/01/30 08:53:07;;;;;;;39.90;7.32;;;7.20;78.70;;;;;;5157395;27;36779;-61
2022/01/30 08:55:36;;;;;;;34.35;7.85;;;7.10;78.50;;;;;;5159264;27;38913;-61
2022/01/30 08:58:07;;;;;;;44.65;7.47;;;7.10;78.80;;;;;;5156911;27;37834;-61
2022/01/30 09:00:36;;;;;;;35.20;8.50;;;7.10;78.90;;;;;;5160312;27;37287;-61
2022/01/30 09:03:05;;;;;;;45.42;8.18;;;7.00;78.70;;;;;;5161021;27;36385;-61
2022/01/30 09:05:33;;;;;;;35.20;6.95;;;7.00;78.70;;;;;;5160020;27;37678;-61
2022/01/30 09:08:04;;;;;;;41.97;7.35;;;7.20;79.10;;;;;;5161003;27;38229;-61
2022/01/30 09:10:31;;;;;;;38.88;6.50;;;7.40;78.60;;;;;;5159574;27;38762;-61
2022/01/30 09:13:00;;;;;;;28.40;6.75;;;7.50;78.50;;;;;;5160005;27;35508;-61
2022/01/30 09:15:28;;;;;;;46.20;8.50;;;7.70;77.50;;;;;;5160279;27;38744;-61
2022/01/30 09:17:57;;;;;;;34.95;6.80;;;7.60;77.20;;;;;;5161216;27;36597;-61
2022/01/30 09:20:25;;;;;;;47.78;8.55;;;7.60;76.90;;;;;;5160014;27;36447;-61
2022/01/30 09:22:53;;;;;;;46.58;7.90;;;7.70;75.80;;;;;;5159831;27;37221;-61
2022/01/30 09:25:21;;;;;;;35.20;7.88;;;7.80;75.90;;;;;;5160553;27;37697;-61
2022/01/30 09:27:48;;;;;;;40.22;7.63;;;8.20;74.90;;;;;;5159677;27;39255;-62
2022/01/30 09:30:17;;;;;;;46.95;7.55;;;8.40;74.60;;;;;;5158289;27;37237;-62
2022/01/30 09:32:45;;;;;;;35.45;7.00;;;8.50;74.00;;;;;;5161237;27;36409;-62
2022/01/30 09:35:12;;;;;;;38.70;7.05;;;8.30;72.70;;;;;;5159536;27;38331;-62
2022/01/30 09:37:40;;;;;;;39.72;6.72;;;8.40;72.20;;;;;;5159690;27;38038;-61
2022/01/30 09:40:09;;;;;;;32.88;6.75;;;8.60;72.70;;;;;;5160305;27;39444;-62
2022/01/30 09:42:37;;;;;;;40.40;7.97;;;9.00;71.70;;;;;;5160425;27;36368;-62
2022/01/30 09:45:06;;;;;;;32.00;7.13;;;9.40;70.30;;;;;;5158719;27;38361;-62
2022/01/30 09:47:34;;;;;;;36.28;7.40;;;9.40;68.70;;;;;;5160457;27;37911;-62
2022/01/30 09:50:05;;;;;;;37.17;7.50;;;9.20;68.80;;;;;;5158943;27;39933;-61
2022/01/30 09:52:32;;;;;;;35.90;7.75;;;9.30;68.90;;;;;;5159305;27;36536;-62
2022/01/30 09:55:00;;;;;;;41.40;8.27;;;9.70;68.10;;;;;;5159491;27;36440;-61
2022/01/30 09:57:27;;;;;;;31.48;6.60;;;9.90;67.00;;;;;;5158302;27;38932;-62
2022/01/30 09:59:56;;;;;;;39.70;7.22;;;9.90;66.30;;;;;;5157821;27;37199;-62
2022/01/30 10:02:26;;;;;;;37.75;6.55;;;9.90;66.20;;;;;;5160074;27;37759;-61
2022/01/30 10:04:54;;;;;;;30.25;6.40;;;10.10;66.00;;;;;;5156790;27;37784;-62
2022/01/30 10:07:26;;;;;;;33.83;6.68;;;10.40;65.50;;;;;;5158628;27;37206;-62
2022/01/30 10:10:08;;;;;;;38.53;7.78;;;10.60;64.80;;;;;;5160500;27;37209;-61
2022/01/30 10:12:35;;;;;;;34.33;7.38;;;10.80;62.90;;;;;;5159279;27;38455;-61
2022/01/30 10:15:07;;;;;;;35.05;6.47;;;10.90;64.50;;;;;;5158001;27;36319;-62
2022/01/30 10:17:36;;;;;;;34.65;8.27;;;10.70;64.50;;;;;;5158635;27;36593;-61
2022/01/30 10:20:08;;;;;;;41.58;7.97;;;10.40;65.00;;;;;;5158483;27;36439;-62
2022/01/30 10:22:37;;;;;;;38.20;7.43;;;10.10;65.20;;;;;;5159064;27;36269;-61
2022/01/30 10:25:05;;;;;;;45.33;10.23;;;9.70;66.10;;;;;;5156659;27;35757;-62
2022/01/30 10:27:33;;;;;;;40.72;8.35;;;9.50;67.20;;;;;;5156531;27;36999;-62
2022/01/30 10:30:04;;;;;;;35.05;6.88;;;9.20;68.20;;;;;;5157683;27;37241;-62
2022/01/30 10:32:32;;;;;;;34.72;7.10;;;9.10;69.10;;;;;;5158223;27;37661;-62
2022/01/30 10:35:02;;;;;;;35.22;6.72;;;9.00;69.70;;;;;;5159202;27;36414;-62
2022/01/30 10:37:32;;;;;;;35.92;6.90;;;8.90;70.00;;;;;;5158864;27;37791;-62
2022/01/30 10:40:04;;;;;;;31.50;6.72;;;8.90;69.60;;;;;;5159318;27;39948;-62
2022/01/30 10:42:38;;;;;;;37.10;6.53;;;8.90;68.80;;;;;;5160180;27;35467;-61
2022/01/30 10:45:09;;;;;;;36.00;7.78;;;9.20;68.60;;;;;;5159080;27;36461;-62
2022/01/30 10:47:37;;;;;;;29.15;7.95;;;9.60;67.80;;;;;;5158435;27;37411;-62
2022/01/30 10:50:14;;;;;;;33.90;8.93;;;9.90;66.60;;;;;;5158737;27;36140;-62
2022/01/30 10:52:55;;;;;;;39.72;7.63;;;10.10;64.90;;;;;;5155607;27;36328;-62
2022/01/30 10:55:37;;;;;;;37.05;6.43;;;10.40;65.00;;;;;;5157879;27;39623;-62
2022/01/30 10:58:05;;;;;;;37.60;6.93;;;10.40;63.00;;;;;;5159563;27;37218;-61
2022/01/30 11:00:43;;;;;;;36.47;6.93;;;10.50;64.00;;;;;;5157605;27;37335;-62
2022/01/30 11:03:32;;;;;;;29.83;6.05;;;10.70;63.20;;;;;;5157784;27;35354;-61
2022/01/30 11:06:01;;;;;;;40.17;7.43;;;10.70;62.90;;;;;;5159614;27;36910;-62
2022/01/30 11:08:32;;;;;;;37.13;7.90;;;10.60;63.00;;;;;;5158768;27;37726;-62
2022/01/30 11:11:09;;;;;;;30.73;7.45;;;10.70;63.10;;;;;;5158513;27;37550;-62
2022/01/30 11:13:48;;;;;;;25.63;5.78;;;10.60;62.50;;;;;;5159814;27;36294;-60
2022/01/30 11:19:02;;;;;;;31.20;6.75;;;10.20;62.30;;;;;;5158644;27;39031;-59
2022/01/30 11:21:30;;;;;;;35.88;6.90;;;10.00;63.40;;;;;;5158312;27;37336;-59
2022/01/30 11:24:00;;;;;;;38.35;8.02;;;10.00;64.60;;;;;;5157785;27;37902;-59
2022/01/30 11:26:29;;;;;;;33.35;6.25;;;10.00;64.30;;;;;;5158758;27;36401;-60
2022/01/30 11:28:58;;;;;;;30.73;6.07;;;10.00;64.70;;;;;;5156943;27;36654;-59
2022/01/30 11:31:26;;;;;;;30.10;7.40;;;9.90;64.60;;;;;;5156442;27;38177;-59
2022/01/30 11:33:54;;;;;;;40.38;8.18;;;9.90;64.80;;;;;;5156265;27;36469;-60
2022/01/30 11:36:23;;;;;;;33.47;7.07;;;10.00;65.50;;;;;;5158091;27;38092;-60
2022/01/30 11:38:51;;;;;;;31.35;5.75;;;10.00;65.30;;;;;;5157005;27;37674;-60
2022/01/30 11:41:21;;;;;;;33.28;7.00;;;10.10;65.00;;;;;;5158424;27;37513;-60
2022/01/30 11:44:29;;;;;;;36.55;7.38;;;10.10;64.40;;;;;;5157933;27;36569;-59
2022/01/30 11:47:24;;;;;;;30.90;6.85;;;10.20;63.80;;;;;;5156905;27;37240;-60
2022/01/30 11:50:03;;;;;;;37.75;7.93;;;10.30;63.80;;;;;;5157040;27;38008;-59
2022/01/30 11:53:01;;;;;;;34.38;7.63;;;10.50;64.20;;;;;;5156170;27;37680;-59
2022/01/30 11:56:02;;;;;;;41.15;9.25;;;10.60;62.90;;;;;;5157937;27;36526;-59
2022/01/30 11:58:55;;;;;;;33.95;7.35;;;10.80;63.20;;;;;;5157086;27;37411;-59
2022/01/30 12:01:36;;;;;;;30.58;7.72;;;10.90;62.90;;;;;;5157294;27;38222;-59
2022/01/30 12:04:09;;;;;;;31.98;8.40;;;10.90;63.40;;;;;;5156525;27;38387;-59
2022/01/30 12:06:38;;;;;;;30.88;7.43;;;10.90;63.50;;;;;;5156763;27;37250;-60
2022/01/30 12:09:30;;;;;;;39.10;7.88;;;10.80;63.90;;;;;;5156568;27;38149;-60
2022/01/30 12:12:08;;;;;;;38.78;7.75;;;10.60;64.10;;;;;;5154351;27;37185;-59
2022/01/30 12:14:58;;;;;;;34.92;7.18;;;10.50;65.40;;;;;;5154984;27;38873;-59
2022/01/30 12:17:58;;;;;;;37.17;7.70;;;10.40;65.40;;;;;;5155390;27;38785;-59
2022/01/30 12:20:27;;;;;;;45.40;8.20;;;10.30;65.20;;;;;;5156608;27;37932;-59
2022/01/30 12:22:55;;;;;;;37.38;7.90;;;10.10;66.30;;;;;;5157302;27;37839;-59
2022/01/30 12:25:31;;;;;;;45.72;8.52;;;9.80;66.60;;;;;;5156474;27;37536;-59
2022/01/30 12:28:02;;;;;;;30.75;6.28;;;9.60;67.50;;;;;;5159695;27;35380;-59
2022/01/30 12:30:52;;;;;;;35.55;6.93;;;9.50;67.50;;;;;;5160859;27;37566;-59
2022/01/30 12:33:41;;;;;;;37.28;6.80;;;9.20;67.10;;;;;;5161873;27;38228;-59
2022/01/30 12:36:20;;;;;;;34.38;6.00;;;9.00;67.30;;;;;;5161745;27;37588;-59
2022/01/30 12:39:03;;;;;;;37.95;6.25;;;8.90;67.90;;;;;;5161312;27;34005;-59
2022/01/30 12:41:33;;;;;;;37.15;7.50;;;8.80;68.40;;;;;;5161531;27;36392;-59
2022/01/30 12:44:02;;;;;;;34.50;7.25;;;8.80;68.60;;;;;;5161678;27;38586;-59
2022/01/30 12:46:35;;;;;;;32.35;5.90;;;8.90;68.20;;;;;;5159215;27;38363;-59
2022/01/30 12:49:11;;;;;;;31.52;6.28;;;8.90;67.20;;;;;;5158590;27;36402;-59
2022/01/30 12:51:42;;;;;;;33.20;5.90;;;8.90;66.30;;;;;;5157668;27;39581;-59
2022/01/30 12:54:12;;;;;;;29.02;6.82;;;8.80;66.70;;;;;;5159840;27;38370;-60
2022/01/30 12:56:40;;;;;;;29.33;6.55;;;8.80;66.40;;;;;;5159361;27;38840;-60
2022/01/30 12:59:08;;;;;;;26.60;5.45;;;8.80;66.40;;;;;;5160094;27;36722;-60
2022/01/30 13:01:40;;;;;;;32.53;6.22;;;8.70;66.00;;;;;;5159391;27;36512;-60
2022/01/30 13:04:11;;;;;;;27.83;6.32;;;8.70;65.80;;;;;;5159100;27;37624;-57
2022/01/30 13:06:41;;;;;;;28.35;5.60;;;8.50;66.00;;;;;;5159470;27;38650;-58
2022/01/30 13:09:09;;;;;;;38.13;6.95;;;8.50;66.50;;;;;;5158305;27;36384;-58
2022/01/30 13:11:37;;;;;;;35.40;6.70;;;8.40;66.70;;;;;;5160850;27;37845;-58
2022/01/30 13:14:07;;;;;;;28.95;5.88;;;8.40;67.00;;;;;;5159182;27;37642;-58
2022/01/30 13:16:40;;;;;;;33.55;6.38;;;8.30;67.20;;;;;;5159465;27;38195;-58
2022/01/30 13:19:09;;;;;;;37.30;7.13;;;8.30;68.00;;;;;;5159531;27;35532;-58
2022/01/30 13:21:39;;;;;;;29.05;5.70;;;8.40;67.90;;;;;;5159030;27;38072;-59
2022/01/30 13:24:08;;;;;;;31.67;6.40;;;8.40;68.10;;;;;;5158095;27;38020;-59
2022/01/30 13:26:41;;;;;;;27.10;5.90;;;8.40;68.00;;;;;;5159235;27;36859;-59
2022/01/30 13:29:15;;;;;;;27.25;5.72;;;8.40;66.60;;;;;;5157419;27;36292;-59
2022/01/30 13:31:45;;;;;;;;;;;8.30;66.20;;;;;;5159124;27;36368;-58
2022/01/30 13:34:16;;;;;;;26.95;5.05;;;8.20;64.70;;;;;;5159596;27;38146;-58